sensor_id;sensor_type;location;lat;lon;timestamp;pressure;altitude;pressure_sealevel;temperature
15453;BMP280;7827;53.594;9.938;2024-01-11T00:00:50;37146.97;;;-135.29
15453;BMP280;7827;53.594;9.938;2024-01-11T00:03:18;37185.78;;;-135.29
15453;BMP280;7827;53.594;9.938;2024-01-11T00:05:47;37205.16;;;-135.29
15453;BMP280;7827;53.594;9.938;2024-01-11T00:08:16;37100.41;;;-135.29
15453;BMP280;7827;53.594;9.938;2024-01-11T00:10:46;37197.41;;;-135.29
15453;BMP280;7827;53.594;9.938;2024-01-11T00:13:14;37115.94;;;-135.29
15453;BMP280;7827;53.594;9.938;2024-01-11T00:15:43;37119.81;;;-135.29
15453;BMP280;7827;53.594;9.938;2024-01-11T00:18:12;37131.44;;;-135.29
15453;BMP280;7827;53.594;9.938;2024-01-11T00:20:40;37065.50;;;-135.29
15453;BMP280;7827;53.594;9.938;2024-01-11T00:23:09;37112.06;;;-135.29
15453;BMP280;7827;53.594;9.938;2024-01-11T00:25:38;37127.56;;;-135.29
15453;BMP280;7827;53.594;9.938;2024-01-11T00:28:07;37088.78;;;-135.29
15453;BMP280;7827;53.594;9.938;2024-01-11T00:30:36;36964.63;;;-135.29
15453;BMP280;7827;53.594;9.938;2024-01-11T00:33:05;37098.47;;;-135.29
15453;BMP280;7827;53.594;9.938;2024-01-11T00:35:34;37053.88;;;-135.29
15453;BMP280;7827;53.594;9.938;2024-01-11T00:38:03;37086.84;;;-135.29
15453;BMP280;7827;53.594;9.938;2024-01-11T00:40:31;37115.94;;;-135.29
15453;BMP280;7827;53.594;9.938;2024-01-11T00:43:00;37181.88;;;-135.29
15453;BMP280;7827;53.594;9.938;2024-01-11T00:45:30;37100.41;;;-135.29
15453;BMP280;7827;53.594;9.938;2024-01-11T00:47:58;37084.91;;;-135.29
15453;BMP280;7827;53.594;9.938;2024-01-11T00:50:27;37094.59;;;-135.29
15453;BMP280;7827;53.594;9.938;2024-01-11T00:52:55;37131.44;;;-135.29
15453;BMP280;7827;53.594;9.938;2024-01-11T00:55:24;37148.91;;;-135.29
15453;BMP280;7827;53.594;9.938;2024-01-11T00:57:52;37178.00;;;-135.29
15453;BMP280;7827;53.594;9.938;2024-01-11T01:00:21;37201.28;;;-135.29
15453;BMP280;7827;53.594;9.938;2024-01-11T01:02:51;37106.25;;;-135.29
15453;BMP280;7827;53.594;9.938;2024-01-11T01:05:20;37098.47;;;-135.29
15453;BMP280;7827;53.594;9.938;2024-01-11T01:07:48;37154.72;;;-135.29
15453;BMP280;7827;53.594;9.938;2024-01-11T01:10:17;37075.19;;;-135.29
15453;BMP280;7827;53.594;9.938;2024-01-11T01:12:45;37127.56;;;-135.29
15453;BMP280;7827;53.594;9.938;2024-01-11T01:15:14;37205.16;;;-135.29
15453;BMP280;7827;53.594;9.938;2024-01-11T01:17:42;37216.81;;;-135.29
15453;BMP280;7827;53.594;9.938;2024-01-11T01:20:12;37166.38;;;-135.29
15453;BMP280;7827;53.594;9.938;2024-01-11T01:22:41;37158.63;;;-135.29
15453;BMP280;7827;53.594;9.938;2024-01-11T01:25:10;37172.19;;;-135.29
15453;BMP280;7827;53.594;9.938;2024-01-11T01:27:38;37059.69;;;-135.29
15453;BMP280;7827;53.594;9.938;2024-01-11T01:30:08;37075.19;;;-135.29
15453;BMP280;7827;53.594;9.938;2024-01-11T01:32:37;37170.25;;;-135.29
15453;BMP280;7827;53.594;9.938;2024-01-11T01:35:05;37253.66;;;-135.29
15453;BMP280;7827;53.594;9.938;2024-01-11T01:37:36;37133.41;;;-135.29
15453;BMP280;7827;53.594;9.938;2024-01-11T01:40:06;37148.91;;;-135.29
15453;BMP280;7827;53.594;9.938;2024-01-11T01:42:35;37115.94;;;-135.29
15453;BMP280;7827;53.594;9.938;2024-01-11T01:45:06;37127.56;;;-135.29
15453;BMP280;7827;53.594;9.938;2024-01-11T01:47:34;37146.97;;;-135.29
15453;BMP280;7827;53.594;9.938;2024-01-11T01:50:05;37232.31;;;-135.29
15453;BMP280;7827;53.594;9.938;2024-01-11T01:52:38;37282.75;;;-135.29
15453;BMP280;7827;53.594;9.938;2024-01-11T01:55:10;37129.50;;;-135.29
15453;BMP280;7827;53.594;9.938;2024-01-11T01:57:42;37160.56;;;-135.29
15453;BMP280;7827;53.594;9.938;2024-01-11T02:00:13;37178.00;;;-135.29
15453;BMP280;7827;53.594;9.938;2024-01-11T02:02:48;37135.34;;;-135.29
15453;BMP280;7827;53.594;9.938;2024-01-11T02:05:18;37137.28;;;-135.29
15453;BMP280;7827;53.594;9.938;2024-01-11T02:07:48;37228.44;;;-135.29
15453;BMP280;7827;53.594;9.938;2024-01-11T02:10:18;37096.53;;;-135.29
15453;BMP280;7827;53.594;9.938;2024-01-11T02:12:47;37150.84;;;-135.29
15453;BMP280;7827;53.594;9.938;2024-01-11T02:15:15;37154.72;;;-135.29
15453;BMP280;7827;53.594;9.938;2024-01-11T02:17:45;37236.19;;;-135.29
15453;BMP280;7827;53.594;9.938;2024-01-11T02:20:14;37251.72;;;-135.29
15453;BMP280;7827;53.594;9.938;2024-01-11T02:22:50;37189.66;;;-135.29
15453;BMP280;7827;53.594;9.938;2024-01-11T02:25:22;37067.44;;;-135.29
15453;BMP280;7827;53.594;9.938;2024-01-11T02:27:51;37137.28;;;-135.29
15453;BMP280;7827;53.594;9.938;2024-01-11T02:30:19;37240.09;;;-135.29
15453;BMP280;7827;53.594;9.938;2024-01-11T02:32:50;37176.06;;;-135.29
15453;BMP280;7827;53.594;9.938;2024-01-11T02:35:19;37174.13;;;-135.29
15453;BMP280;7827;53.594;9.938;2024-01-11T02:37:48;37154.72;;;-135.29
15453;BMP280;7827;53.594;9.938;2024-01-11T02:40:19;37129.50;;;-135.29
15453;BMP280;7827;53.594;9.938;2024-01-11T02:42:49;37067.44;;;-135.29
15453;BMP280;7827;53.594;9.938;2024-01-11T02:45:17;37123.69;;;-135.29
15453;BMP280;7827;53.594;9.938;2024-01-11T02:47:46;37209.03;;;-135.29
15453;BMP280;7827;53.594;9.938;2024-01-11T02:50:14;37127.56;;;-135.29
15453;BMP280;7827;53.594;9.938;2024-01-11T02:52:43;37191.59;;;-135.29
15453;BMP280;7827;53.594;9.938;2024-01-11T02:55:12;37077.13;;;-135.29
15453;BMP280;7827;53.594;9.938;2024-01-11T02:57:40;37179.94;;;-135.29
15453;BMP280;7827;53.594;9.938;2024-01-11T03:00:12;37212.94;;;-135.29
15453;BMP280;7827;53.594;9.938;2024-01-11T03:02:40;37187.72;;;-135.29
15453;BMP280;7827;53.594;9.938;2024-01-11T03:05:09;37203.22;;;-135.29
15453;BMP280;7827;53.594;9.938;2024-01-11T03:07:38;37123.69;;;-135.29
15453;BMP280;7827;53.594;9.938;2024-01-11T03:10:07;37164.44;;;-135.29
15453;BMP280;7827;53.594;9.938;2024-01-11T03:12:36;37108.19;;;-135.29
15453;BMP280;7827;53.594;9.938;2024-01-11T03:15:05;37143.09;;;-135.29
15453;BMP280;7827;53.594;9.938;2024-01-11T03:17:35;37117.88;;;-135.29
15453;BMP280;7827;53.594;9.938;2024-01-11T03:20:05;37232.31;;;-135.29
15453;BMP280;7827;53.594;9.938;2024-01-11T03:22:33;37240.09;;;-135.29
15453;BMP280;7827;53.594;9.938;2024-01-11T03:25:02;37036.41;;;-135.29
15453;BMP280;7827;53.594;9.938;2024-01-11T03:27:31;37174.13;;;-135.29
15453;BMP280;7827;53.594;9.938;2024-01-11T03:29:59;37053.88;;;-135.29
15453;BMP280;7827;53.594;9.938;2024-01-11T03:32:28;37094.59;;;-135.29
15453;BMP280;7827;53.594;9.938;2024-01-11T03:34:58;37160.56;;;-135.29
15453;BMP280;7827;53.594;9.938;2024-01-11T03:37:27;37191.59;;;-135.29
15453;BMP280;7827;53.594;9.938;2024-01-11T03:39:55;37042.22;;;-135.29
15453;BMP280;7827;53.594;9.938;2024-01-11T03:42:24;37131.44;;;-135.29
15453;BMP280;7827;53.594;9.938;2024-01-11T03:44:52;37053.88;;;-135.29
15453;BMP280;7827;53.594;9.938;2024-01-11T03:47:21;37143.09;;;-135.29
15453;BMP280;7827;53.594;9.938;2024-01-11T03:49:50;37143.09;;;-135.29
15453;BMP280;7827;53.594;9.938;2024-01-11T03:52:19;37150.84;;;-135.29
15453;BMP280;7827;53.594;9.938;2024-01-11T03:54:48;37174.13;;;-135.29
15453;BMP280;7827;53.594;9.938;2024-01-11T03:57:16;37036.41;;;-135.29
15453;BMP280;7827;53.594;9.938;2024-01-11T03:59:45;37098.47;;;-135.29
15453;BMP280;7827;53.594;9.938;2024-01-11T04:02:13;37024.78;;;-135.29
15453;BMP280;7827;53.594;9.938;2024-01-11T04:04:42;37077.13;;;-135.29
15453;BMP280;7827;53.594;9.938;2024-01-11T04:07:10;37034.47;;;-135.29
15453;BMP280;7827;53.594;9.938;2024-01-11T04:09:40;37104.28;;;-135.29
15453;BMP280;7827;53.594;9.938;2024-01-11T04:12:08;37108.19;;;-135.29
15453;BMP280;7827;53.594;9.938;2024-01-11T04:14:38;37098.47;;;-135.29
15453;BMP280;7827;53.594;9.938;2024-01-11T04:17:08;37158.63;;;-135.29
15453;BMP280;7827;53.594;9.938;2024-01-11T04:19:36;37065.50;;;-135.29
15453;BMP280;7827;53.594;9.938;2024-01-11T04:22:04;37053.88;;;-135.29
15453;BMP280;7827;53.594;9.938;2024-01-11T04:24:33;37096.53;;;-135.29
15453;BMP280;7827;53.594;9.938;2024-01-11T04:27:03;37071.31;;;-135.29
15453;BMP280;7827;53.594;9.938;2024-01-11T04:29:31;37139.22;;;-135.29
15453;BMP280;7827;53.594;9.938;2024-01-11T04:32:00;36991.78;;;-135.29
15453;BMP280;7827;53.594;9.938;2024-01-11T04:34:29;37084.91;;;-135.29
15453;BMP280;7827;53.594;9.938;2024-01-11T04:36:58;37053.88;;;-135.29
15453;BMP280;7827;53.594;9.938;2024-01-11T04:39:26;37088.78;;;-135.29
15453;BMP280;7827;53.594;9.938;2024-01-11T04:41:54;37100.41;;;-135.29
15453;BMP280;7827;53.594;9.938;2024-01-11T04:44:24;37139.22;;;-135.29
15453;BMP280;7827;53.594;9.938;2024-01-11T04:46:54;37158.63;;;-135.29
15453;BMP280;7827;53.594;9.938;2024-01-11T04:49:23;37205.16;;;-135.29
15453;BMP280;7827;53.594;9.938;2024-01-11T04:51:51;37092.66;;;-135.29
15453;BMP280;7827;53.594;9.938;2024-01-11T04:54:20;37179.94;;;-135.29
15453;BMP280;7827;53.594;9.938;2024-01-11T04:56:48;37129.50;;;-135.29
15453;BMP280;7827;53.594;9.938;2024-01-11T04:59:17;37131.44;;;-135.29
15453;BMP280;7827;53.594;9.938;2024-01-11T05:01:47;37228.44;;;-135.29
15453;BMP280;7827;53.594;9.938;2024-01-11T05:04:15;37110.13;;;-135.29
15453;BMP280;7827;53.594;9.938;2024-01-11T05:06:44;37154.72;;;-135.29
15453;BMP280;7827;53.594;9.938;2024-01-11T05:09:12;37123.69;;;-135.29
15453;BMP280;7827;53.594;9.938;2024-01-11T05:11:42;37088.78;;;-135.29
15453;BMP280;7827;53.594;9.938;2024-01-11T05:14:10;37051.94;;;-135.29
15453;BMP280;7827;53.594;9.938;2024-01-11T05:16:39;37073.25;;;-135.29
15453;BMP280;7827;53.594;9.938;2024-01-11T05:19:10;37141.16;;;-135.29
15453;BMP280;7827;53.594;9.938;2024-01-11T05:21:39;37125.63;;;-135.29
15453;BMP280;7827;53.594;9.938;2024-01-11T05:24:07;37119.81;;;-135.29
15453;BMP280;7827;53.594;9.938;2024-01-11T05:26:38;37090.72;;;-135.29
15453;BMP280;7827;53.594;9.938;2024-01-11T05:29:06;37090.72;;;-135.29
15453;BMP280;7827;53.594;9.938;2024-01-11T05:31:36;37178.00;;;-135.29
15453;BMP280;7827;53.594;9.938;2024-01-11T05:34:05;37034.47;;;-135.29
15453;BMP280;7827;53.594;9.938;2024-01-11T05:36:35;37088.78;;;-135.29
15453;BMP280;7827;53.594;9.938;2024-01-11T05:39:04;37143.09;;;-135.29
15453;BMP280;7827;53.594;9.938;2024-01-11T05:41:33;37079.09;;;-135.29
15453;BMP280;7827;53.594;9.938;2024-01-11T05:44:01;37081.03;;;-135.29
15453;BMP280;7827;53.594;9.938;2024-01-11T05:46:30;37075.19;;;-135.29
15453;BMP280;7827;53.594;9.938;2024-01-11T05:49:00;37075.19;;;-135.29
15453;BMP280;7827;53.594;9.938;2024-01-11T05:51:28;37053.88;;;-135.29
15453;BMP280;7827;53.594;9.938;2024-01-11T05:53:58;37166.38;;;-135.29
15453;BMP280;7827;53.594;9.938;2024-01-11T05:56:27;37146.97;;;-135.29
15453;BMP280;7827;53.594;9.938;2024-01-11T05:58:55;37154.72;;;-135.29
15453;BMP280;7827;53.594;9.938;2024-01-11T06:01:23;37092.66;;;-135.29
15453;BMP280;7827;53.594;9.938;2024-01-11T06:03:52;37123.69;;;-135.29
15453;BMP280;7827;53.594;9.938;2024-01-11T06:06:21;37073.25;;;-135.29
15453;BMP280;7827;53.594;9.938;2024-01-11T06:08:49;36989.84;;;-135.29
15453;BMP280;7827;53.594;9.938;2024-01-11T06:11:19;37133.41;;;-135.29
15453;BMP280;7827;53.594;9.938;2024-01-11T06:13:48;37049.97;;;-135.29
15453;BMP280;7827;53.594;9.938;2024-01-11T06:16:16;37038.34;;;-135.29
15453;BMP280;7827;53.594;9.938;2024-01-11T06:18:44;37146.97;;;-135.29
15453;BMP280;7827;53.594;9.938;2024-01-11T06:21:13;36999.56;;;-135.29
15453;BMP280;7827;53.594;9.938;2024-01-11T06:23:43;37092.66;;;-135.29
15453;BMP280;7827;53.594;9.938;2024-01-11T06:26:11;37090.72;;;-135.29
15453;BMP280;7827;53.594;9.938;2024-01-11T06:28:41;37063.56;;;-135.29
15453;BMP280;7827;53.594;9.938;2024-01-11T06:31:10;37069.38;;;-135.29
15453;BMP280;7827;53.594;9.938;2024-01-11T06:33:39;37088.78;;;-135.29
15453;BMP280;7827;53.594;9.938;2024-01-11T06:36:07;37115.94;;;-135.29
15453;BMP280;7827;53.594;9.938;2024-01-11T06:38:36;37075.19;;;-135.29
15453;BMP280;7827;53.594;9.938;2024-01-11T06:41:05;37069.38;;;-135.29
15453;BMP280;7827;53.594;9.938;2024-01-11T06:43:33;37123.69;;;-135.29
15453;BMP280;7827;53.594;9.938;2024-01-11T06:46:05;37061.63;;;-135.29
15453;BMP280;7827;53.594;9.938;2024-01-11T06:48:34;37055.81;;;-135.29
15453;BMP280;7827;53.594;9.938;2024-01-11T06:51:03;36976.28;;;-135.29
15453;BMP280;7827;53.594;9.938;2024-01-11T06:53:31;37123.69;;;-135.29
15453;BMP280;7827;53.594;9.938;2024-01-11T06:56:00;37022.81;;;-135.29
15453;BMP280;7827;53.594;9.938;2024-01-11T06:58:28;37108.19;;;-135.29
15453;BMP280;7827;53.594;9.938;2024-01-11T07:00:57;36995.66;;;-135.29
15453;BMP280;7827;53.594;9.938;2024-01-11T07:03:27;37034.47;;;-135.29
15453;BMP280;7827;53.594;9.938;2024-01-11T07:05:55;37036.41;;;-135.29
15453;BMP280;7827;53.594;9.938;2024-01-11T07:08:24;36997.63;;;-135.29
15453;BMP280;7827;53.594;9.938;2024-01-11T07:10:52;37038.34;;;-135.29
15453;BMP280;7827;53.594;9.938;2024-01-11T07:13:21;37003.44;;;-135.29
15453;BMP280;7827;53.594;9.938;2024-01-11T07:15:49;36974.34;;;-135.29
15453;BMP280;7827;53.594;9.938;2024-01-11T07:18:19;37051.94;;;-135.29
15453;BMP280;7827;53.594;9.938;2024-01-11T07:20:49;36964.63;;;-135.29
15453;BMP280;7827;53.594;9.938;2024-01-11T07:23:18;37046.09;;;-135.29
15453;BMP280;7827;53.594;9.938;2024-01-11T07:25:47;36958.81;;;-135.29
15453;BMP280;7827;53.594;9.938;2024-01-11T07:28:16;36987.91;;;-135.29
15453;BMP280;7827;53.594;9.938;2024-01-11T07:30:46;36916.16;;;-135.29
15453;BMP280;7827;53.594;9.938;2024-01-11T07:33:15;37026.72;;;-135.29
15453;BMP280;7827;53.594;9.938;2024-01-11T07:35:43;36960.75;;;-135.29
15453;BMP280;7827;53.594;9.938;2024-01-11T07:38:14;37030.59;;;-135.29
15453;BMP280;7827;53.594;9.938;2024-01-11T07:40:43;37018.94;;;-135.29
15453;BMP280;7827;53.594;9.938;2024-01-11T07:43:11;36939.41;;;-135.29
15453;BMP280;7827;53.594;9.938;2024-01-11T07:45:43;36929.72;;;-135.29
15453;BMP280;7827;53.594;9.938;2024-01-11T07:48:12;36923.91;;;-135.29
15453;BMP280;7827;53.594;9.938;2024-01-11T07:50:40;36999.56;;;-135.29
15453;BMP280;7827;53.594;9.938;2024-01-11T07:53:09;36968.53;;;-135.29
15453;BMP280;7827;53.594;9.938;2024-01-11T07:55:39;36966.56;;;-135.29
15453;BMP280;7827;53.594;9.938;2024-01-11T07:58:07;36867.66;;;-135.29
15453;BMP280;7827;53.594;9.938;2024-01-11T08:00:36;36850.19;;;-135.29
15453;BMP280;7827;53.594;9.938;2024-01-11T08:03:05;36673.72;;;-135.29
15453;BMP280;7827;53.594;9.938;2024-01-11T08:05:33;36658.19;;;-135.29
15453;BMP280;7827;53.594;9.938;2024-01-11T08:08:03;36638.78;;;-135.29
15453;BMP280;7827;53.594;9.938;2024-01-11T08:10:31;36677.59;;;-135.29
15453;BMP280;7827;53.594;9.938;2024-01-11T08:13:01;36665.94;;;-135.29
15453;BMP280;7827;53.594;9.938;2024-01-11T08:15:30;36654.31;;;-135.29
15453;BMP280;7827;53.594;9.938;2024-01-11T08:17:59;36646.56;;;-135.29
15453;BMP280;7827;53.594;9.938;2024-01-11T08:20:28;36656.25;;;-135.29
15453;BMP280;7827;53.594;9.938;2024-01-11T08:22:56;36737.72;;;-135.29
15453;BMP280;7827;53.594;9.938;2024-01-11T08:25:25;36877.34;;;-135.29
15453;BMP280;7827;53.594;9.938;2024-01-11T08:27:53;36825.00;;;-135.29
15453;BMP280;7827;53.594;9.938;2024-01-11T08:30:24;36832.75;;;-135.29
15453;BMP280;7827;53.594;9.938;2024-01-11T08:32:52;36890.94;;;-135.29
15453;BMP280;7827;53.594;9.938;2024-01-11T08:35:21;36854.09;;;-135.29
15453;BMP280;7827;53.594;9.938;2024-01-11T08:37:50;36933.59;;;-135.29
15453;BMP280;7827;53.594;9.938;2024-01-11T08:40:18;36842.44;;;-135.29
15453;BMP280;7827;53.594;9.938;2024-01-11T08:42:49;36894.81;;;-135.29
15453;BMP280;7827;53.594;9.938;2024-01-11T08:45:17;36953.00;;;-135.29
15453;BMP280;7827;53.594;9.938;2024-01-11T08:47:47;36929.72;;;-135.29
15453;BMP280;7827;53.594;9.938;2024-01-11T08:50:17;36968.53;;;-135.29
15453;BMP280;7827;53.594;9.938;2024-01-11T08:52:50;36856.03;;;-135.29
15453;BMP280;7827;53.594;9.938;2024-01-11T08:55:18;36825.00;;;-135.29
15453;BMP280;7827;53.594;9.938;2024-01-11T08:57:47;36793.94;;;-135.29
15453;BMP280;7827;53.594;9.938;2024-01-11T09:00:16;36749.34;;;-135.29
15453;BMP280;7827;53.594;9.938;2024-01-11T09:02:47;36865.72;;;-135.29
15453;BMP280;7827;53.594;9.938;2024-01-11T09:05:16;36825.00;;;-135.29
15453;BMP280;7827;53.594;9.938;2024-01-11T09:07:45;36782.31;;;-135.29
15453;BMP280;7827;53.594;9.938;2024-01-11T09:10:14;36817.22;;;-135.29
15453;BMP280;7827;53.594;9.938;2024-01-11T09:12:43;36836.63;;;-135.29
15453;BMP280;7827;53.594;9.938;2024-01-11T09:15:11;36836.63;;;-135.29
15453;BMP280;7827;53.594;9.938;2024-01-11T09:17:40;36724.13;;;-135.29
15453;BMP280;7827;53.594;9.938;2024-01-11T09:20:10;36695.03;;;-135.29
15453;BMP280;7827;53.594;9.938;2024-01-11T09:22:41;36813.34;;;-135.29
15453;BMP280;7827;53.594;9.938;2024-01-11T09:25:10;36634.91;;;-135.29
15453;BMP280;7827;53.594;9.938;2024-01-11T09:27:38;36718.31;;;-135.29
15453;BMP280;7827;53.594;9.938;2024-01-11T09:30:08;36766.81;;;-135.29
15453;BMP280;7827;53.594;9.938;2024-01-11T09:32:37;36762.91;;;-135.29
15453;BMP280;7827;53.594;9.938;2024-01-11T09:35:06;36724.13;;;-135.29
15453;BMP280;7827;53.594;9.938;2024-01-11T09:37:40;36757.09;;;-135.29
15453;BMP280;7827;53.594;9.938;2024-01-11T09:40:10;36776.50;;;-135.29
15453;BMP280;7827;53.594;9.938;2024-01-11T09:42:39;36681.47;;;-135.29
15453;BMP280;7827;53.594;9.938;2024-01-11T09:45:13;36784.25;;;-135.29
15453;BMP280;7827;53.594;9.938;2024-01-11T09:47:44;36782.31;;;-135.29
15453;BMP280;7827;53.594;9.938;2024-01-11T09:50:16;36716.38;;;-135.29
15453;BMP280;7827;53.594;9.938;2024-01-11T09:52:48;36842.44;;;-135.29
15453;BMP280;7827;53.594;9.938;2024-01-11T09:55:18;36745.47;;;-135.29
15453;BMP280;7827;53.594;9.938;2024-01-11T09:57:48;36793.94;;;-135.29
15453;BMP280;7827;53.594;9.938;2024-01-11T10:00:22;36759.03;;;-135.29
15453;BMP280;7827;53.594;9.938;2024-01-11T10:02:51;36778.44;;;-135.29
15453;BMP280;7827;53.594;9.938;2024-01-11T10:05:20;36774.56;;;-135.29
15453;BMP280;7827;53.594;9.938;2024-01-11T10:07:50;36757.09;;;-135.29
15453;BMP280;7827;53.594;9.938;2024-01-11T10:10:18;36745.47;;;-135.29
15453;BMP280;7827;53.594;9.938;2024-01-11T10:12:48;36669.81;;;-135.29
15453;BMP280;7827;53.594;9.938;2024-01-11T10:15:16;36751.28;;;-135.29
15453;BMP280;7827;53.594;9.938;2024-01-11T10:17:45;36811.41;;;-135.29
15453;BMP280;7827;53.594;9.938;2024-01-11T10:20:16;36795.91;;;-135.29
15453;BMP280;7827;53.594;9.938;2024-01-11T10:22:52;36747.41;;;-135.29
15453;BMP280;7827;53.594;9.938;2024-01-11T10:25:20;36753.22;;;-135.29
15453;BMP280;7827;53.594;9.938;2024-01-11T10:27:49;36728.00;;;-135.29
15453;BMP280;7827;53.594;9.938;2024-01-11T10:30:18;36743.53;;;-135.29
15453;BMP280;7827;53.594;9.938;2024-01-11T10:32:48;36708.63;;;-135.29
15453;BMP280;7827;53.594;9.938;2024-01-11T10:35:17;36728.00;;;-135.29
15453;BMP280;7827;53.594;9.938;2024-01-11T10:37:51;36696.97;;;-135.29
15453;BMP280;7827;53.594;9.938;2024-01-11T10:40:22;36747.41;;;-135.29
15453;BMP280;7827;53.594;9.938;2024-01-11T10:42:53;36642.69;;;-135.29
15453;BMP280;7827;53.594;9.938;2024-01-11T10:45:25;36642.69;;;-135.29
15453;BMP280;7827;53.594;9.938;2024-01-11T10:47:56;36665.94;;;-135.29
15453;BMP280;7827;53.594;9.938;2024-01-11T10:50:36;36665.94;;;-135.29
15453;BMP280;7827;53.594;9.938;2024-01-11T10:53:20;36642.69;;;-135.29
15453;BMP280;7827;53.594;9.938;2024-01-11T10:55:58;36685.34;;;-135.29
15453;BMP280;7827;53.594;9.938;2024-01-11T10:58:27;36696.97;;;-135.29
15453;BMP280;7827;53.594;9.938;2024-01-11T11:00:59;36627.16;;;-135.29
15453;BMP280;7827;53.594;9.938;2024-01-11T11:03:30;36665.94;;;-135.29
15453;BMP280;7827;53.594;9.938;2024-01-11T11:06:00;36658.19;;;-135.29
15453;BMP280;7827;53.594;9.938;2024-01-11T11:08:31;36636.84;;;-135.29
15453;BMP280;7827;53.594;9.938;2024-01-11T11:11:03;36677.59;;;-135.29
15453;BMP280;7827;53.594;9.938;2024-01-11T11:13:33;36638.78;;;-135.29
15453;BMP280;7827;53.594;9.938;2024-01-11T11:16:03;36720.25;;;-135.29
15453;BMP280;7827;53.594;9.938;2024-01-11T11:18:33;36588.38;;;-135.29
15453;BMP280;7827;53.594;9.938;2024-01-11T11:21:09;36832.75;;;-135.29
15453;BMP280;7827;53.594;9.938;2024-01-11T11:23:40;36642.69;;;-135.29
15453;BMP280;7827;53.594;9.938;2024-01-11T11:26:14;36654.31;;;-135.29
15453;BMP280;7827;53.594;9.938;2024-01-11T11:28:44;36696.97;;;-135.29
15453;BMP280;7827;53.594;9.938;2024-01-11T11:31:13;36702.78;;;-135.29
15453;BMP280;7827;53.594;9.938;2024-01-11T11:33:41;36722.19;;;-135.29
15453;BMP280;7827;53.594;9.938;2024-01-11T11:36:13;36629.09;;;-135.29
15453;BMP280;7827;53.594;9.938;2024-01-11T11:38:43;36704.75;;;-135.29
15453;BMP280;7827;53.594;9.938;2024-01-11T11:41:12;36658.19;;;-135.29
15453;BMP280;7827;53.594;9.938;2024-01-11T11:43:40;36570.91;;;-135.29
15453;BMP280;7827;53.594;9.938;2024-01-11T11:46:09;36636.84;;;-135.29
15453;BMP280;7827;53.594;9.938;2024-01-11T11:48:51;36747.41;;;-135.29
15453;BMP280;7827;53.594;9.938;2024-01-11T11:51:22;36681.47;;;-135.29
15453;BMP280;7827;53.594;9.938;2024-01-11T11:53:57;36695.03;;;-135.29
15453;BMP280;7827;53.594;9.938;2024-01-11T11:56:28;36665.94;;;-135.29
15453;BMP280;7827;53.594;9.938;2024-01-11T11:58:58;36607.75;;;-135.29
15453;BMP280;7827;53.594;9.938;2024-01-11T12:01:29;36644.63;;;-135.29
15453;BMP280;7827;53.594;9.938;2024-01-11T12:03:59;36681.47;;;-135.29
15453;BMP280;7827;53.594;9.938;2024-01-11T12:06:29;36693.09;;;-135.29
15453;BMP280;7827;53.594;9.938;2024-01-11T12:09:00;36658.19;;;-135.29
15453;BMP280;7827;53.594;9.938;2024-01-11T12:11:29;36619.41;;;-135.29
15453;BMP280;7827;53.594;9.938;2024-01-11T12:13:58;36588.38;;;-135.29
15453;BMP280;7827;53.594;9.938;2024-01-11T12:16:27;36658.19;;;-135.29
15453;BMP280;7827;53.594;9.938;2024-01-11T12:18:55;36600.00;;;-135.29
15453;BMP280;7827;53.594;9.938;2024-01-11T12:21:24;36631.03;;;-135.29
15453;BMP280;7827;53.594;9.938;2024-01-11T12:23:55;36634.91;;;-135.29
15453;BMP280;7827;53.594;9.938;2024-01-11T12:26:25;36634.91;;;-135.29
15453;BMP280;7827;53.594;9.938;2024-01-11T12:28:54;36648.50;;;-135.29
15453;BMP280;7827;53.594;9.938;2024-01-11T12:31:23;36588.38;;;-135.29
15453;BMP280;7827;53.594;9.938;2024-01-11T12:33:52;36526.31;;;-135.29
15453;BMP280;7827;53.594;9.938;2024-01-11T12:36:21;36623.28;;;-135.29
15453;BMP280;7827;53.594;9.938;2024-01-11T12:38:50;36669.81;;;-135.29
15453;BMP280;7827;53.594;9.938;2024-01-11T12:41:21;36648.50;;;-135.29
15453;BMP280;7827;53.594;9.938;2024-01-11T12:43:53;36644.63;;;-135.29
15453;BMP280;7827;53.594;9.938;2024-01-11T12:46:22;36596.13;;;-135.29
15453;BMP280;7827;53.594;9.938;2024-01-11T12:48:51;36537.94;;;-135.29
15453;BMP280;7827;53.594;9.938;2024-01-11T12:51:20;36520.50;;;-135.29
15453;BMP280;7827;53.594;9.938;2024-01-11T12:53:51;36675.66;;;-135.29
15453;BMP280;7827;53.594;9.938;2024-01-11T12:56:21;36568.97;;;-135.29
15453;BMP280;7827;53.594;9.938;2024-01-11T12:58:50;36570.91;;;-135.29
15453;BMP280;7827;53.594;9.938;2024-01-11T13:01:21;36518.56;;;-135.29
15453;BMP280;7827;53.594;9.938;2024-01-11T13:03:49;36503.03;;;-135.29
15453;BMP280;7827;53.594;9.938;2024-01-11T13:06:18;36568.97;;;-135.29
15453;BMP280;7827;53.594;9.938;2024-01-11T13:08:47;36549.59;;;-135.29
15453;BMP280;7827;53.594;9.938;2024-01-11T13:11:16;36479.78;;;-135.29
15453;BMP280;7827;53.594;9.938;2024-01-11T13:13:48;36493.34;;;-135.29
15453;BMP280;7827;53.594;9.938;2024-01-11T13:16:17;36452.63;;;-135.29
15453;BMP280;7827;53.594;9.938;2024-01-11T13:18:48;36632.97;;;-135.29
15453;BMP280;7827;53.594;9.938;2024-01-11T13:21:17;36475.88;;;-135.29
15453;BMP280;7827;53.594;9.938;2024-01-11T13:23:45;36518.56;;;-135.29
15453;BMP280;7827;53.594;9.938;2024-01-11T13:26:14;36479.78;;;-135.29
15453;BMP280;7827;53.594;9.938;2024-01-11T13:28:43;36454.56;;;-135.29
15453;BMP280;7827;53.594;9.938;2024-01-11T13:31:11;36499.16;;;-135.29
15453;BMP280;7827;53.594;9.938;2024-01-11T13:33:40;36489.47;;;-135.29
15453;BMP280;7827;53.594;9.938;2024-01-11T13:36:10;36409.94;;;-135.29
15453;BMP280;7827;53.594;9.938;2024-01-11T13:38:38;36479.78;;;-135.29
15453;BMP280;7827;53.594;9.938;2024-01-11T13:41:07;36468.13;;;-135.29
15453;BMP280;7827;53.594;9.938;2024-01-11T13:43:36;36440.97;;;-135.29
15453;BMP280;7827;53.594;9.938;2024-01-11T13:46:04;36442.91;;;-135.29
15453;BMP280;7827;53.594;9.938;2024-01-11T13:48:33;36375.03;;;-135.29
15453;BMP280;7827;53.594;9.938;2024-01-11T13:51:03;36460.38;;;-135.29
15453;BMP280;7827;53.594;9.938;2024-01-11T13:53:33;36417.72;;;-135.29
15453;BMP280;7827;53.594;9.938;2024-01-11T13:56:01;36481.72;;;-135.29
15453;BMP280;7827;53.594;9.938;2024-01-11T13:58:30;36433.22;;;-135.29
15453;BMP280;7827;53.594;9.938;2024-01-11T14:00:59;36477.81;;;-135.29
15453;BMP280;7827;53.594;9.938;2024-01-11T14:03:27;36373.09;;;-135.29
15453;BMP280;7827;53.594;9.938;2024-01-11T14:05:55;36425.47;;;-135.29
15453;BMP280;7827;53.594;9.938;2024-01-11T14:08:25;36433.22;;;-135.29